createdAt,value
2023-01-24T00:05:51.341Z,15.9
2023-01-24T00:28:30.487Z,15.8
2023-01-24T00:46:36.492Z,15.8
2023-01-24T01:06:56.809Z,15.8
2023-01-24T01:27:40.420Z,15.7
2023-01-24T01:46:36.452Z,15.7
2023-01-24T02:07:44.064Z,15.7
2023-01-24T02:25:54.879Z,15.7
2023-01-24T02:47:03.604Z,15.7
2023-01-24T03:05:52.758Z,15.6
2023-01-24T03:26:13.774Z,15.6
2023-01-24T04:05:03.800Z,15.6
2023-01-24T04:48:49.823Z,15.6
2023-01-24T05:07:27.512Z,15.6
2023-01-24T05:25:52.131Z,15.8
2023-01-24T05:45:53.420Z,15.9
2023-01-24T06:05:29.604Z,16
2023-01-24T06:45:52.112Z,16.1
2023-01-24T13:24:21.015Z,17.1
2023-01-24T13:44:20.803Z,17.2
2023-01-24T16:46:55.584Z,17.2
2023-01-24T17:05:53.148Z,17.1
2023-01-24T17:26:12.742Z,17.2
2023-01-24T17:46:13.468Z,17.4
2023-01-24T18:05:30.478Z,17.7
2023-01-24T18:26:37.660Z,17.9
2023-01-24T18:46:17.494Z,17.8
2023-01-24T19:05:32.783Z,17.8
2023-01-24T19:26:36.039Z,17.8
2023-01-24T19:46:14.134Z,17.8
2023-01-24T20:07:19.011Z,17.8
2023-01-24T20:25:51.861Z,17.8
2023-01-24T20:45:50.849Z,17.8
2023-01-24T21:05:52.033Z,17.8
2023-01-24T21:25:50.730Z,17.7
2023-01-24T21:47:19.478Z,17.6
2023-01-24T22:06:13.881Z,17.4
2023-01-24T22:25:51.201Z,17.3
2023-01-24T22:44:19.496Z,17.2
2023-01-24T23:07:42.886Z,17.2
2023-01-24T23:25:51.383Z,17.1
2023-01-24T23:46:38.015Z,17
